Plymouth, New York
Current Conditions -  °F | °C
As of 1:35 PM on Thursday 27 Nov 2014 (Local Time) from KN03 Reporting Station
Overcast Overcast  
Wind Chill: 23°   Ceiling: 1700
Heat Index: 30°   Visibility: 10mi
Dew Point: 27°   Wind: 7mph
Humidity: 86%   Direction: 260°W
Pressure: 29.99"   Gusts: NA
Location:  42.62°N, 75.6°W
Report Text: KN03 271835Z AUTO 26006KT 10SM OVC017 M01/M03 A2999 RMK AO2
Loading
Personal Weather Stations






























Interactive Weather Map New forecast layout! Learn more

10-Day Weather Forecast

Advertisements
Track Severe Weather on mobile